Time;durP1;ratioP1;P1;durP2;ratioP2;P2;SDS_P1;SDS_P2;PMS_P1;PMS_P2;Temp;Humidity;BMP_temperature;BMP_pressure;BME280_temperature;BME280_humidity;BME280_pressure;Samples;Min_cycle;Max_cycle;Signal;HPM_P1;HPM_P2
2021/10/16 00:00:44;;;;;;;1.40;0.40;;;;;;;;;;10205952;28;20202;-61
2021/10/16 00:05:42;;;;;;;6.00;0.40;;;;;;;;;;10208932;28;20026;-61
2021/10/16 00:10:40;;;;;;;10.60;0.93;;;;;;;;;;10204378;28;20025;-61
2021/10/16 00:15:37;;;;;;;0.40;0.40;;;;;;;;;;10204660;28;20030;-61
2021/10/16 00:20:35;;;;;;;0.93;0.50;;;;;;;;;;10204037;28;20030;-61
2021/10/16 00:25:32;;;;;;;2.30;0.27;;;;;;;;;;10205877;28;20497;-61
2021/10/16 00:30:30;;;;;;;0.30;0.30;;;;;;;;;;10206523;28;20026;-60
2021/10/16 00:35:27;;;;;;;13.70;1.50;;;;;;;;;;10201816;28;20043;-60
2021/10/16 00:40:24;;;;;;;6.33;0.80;;;;;;;;;;10201375;28;20787;-60
2021/10/16 00:45:23;;;;;;;7.63;1.27;;;;;;;;;;10213262;28;20038;-62
2021/10/16 00:50:21;;;;;;;9.32;1.52;;;;;;;;;;10218647;28;20396;-59
2021/10/16 00:55:19;;;;;;;1.67;0.70;;;;;;;;;;10234049;28;20039;-61
2021/10/16 01:00:17;;;;;;;3.80;1.30;;;;;;;;;;10215299;28;20066;-61
2021/10/16 01:05:14;;;;;;;1.57;0.20;;;;;;;;;;10210178;28;20074;-61
2021/10/16 01:10:13;;;;;;;3.10;0.87;;;;;;;;;;10217100;28;20046;-60
2021/10/16 01:15:12;;;;;;;1.55;0.73;;;;;;;;;;10216319;28;20042;-60
2021/10/16 01:20:13;;;;;;;3.45;0.52;;;;;;;;;;10228687;28;20181;-63
2021/10/16 01:25:15;;;;;;;8.40;0.43;;;;;;;;;;10227804;28;20053;-62
2021/10/16 01:30:14;;;;;;;9.50;1.00;;;;;;;;;;10228609;28;20042;-61
2021/10/16 01:35:12;;;;;;;2.20;0.52;;;;;;;;;;10242588;28;20058;-61
2021/10/16 01:40:10;;;;;;;8.05;1.67;;;;;;;;;;10227914;28;20045;-61
2021/10/16 01:45:09;;;;;;;2.60;0.40;;;;;;;;;;10226181;28;20034;-62
2021/10/16 01:50:07;;;;;;;2.15;0.40;;;;;;;;;;10226119;28;20111;-62
2021/10/16 01:55:05;;;;;;;6.43;0.90;;;;;;;;;;10220301;28;20034;-62
2021/10/16 02:00:06;;;;;;;2.35;0.70;;;;;;;;;;10239863;28;20034;-62
2021/10/16 02:05:04;;;;;;;1.02;0.50;;;;;;;;;;10229303;28;20050;-62
2021/10/16 02:10:01;;;;;;;3.53;0.40;;;;;;;;;;10229203;28;20039;-62
2021/10/16 02:15:01;;;;;;;1.77;0.52;;;;;;;;;;10244664;28;20039;-62
2021/10/16 02:20:05;;;;;;;6.13;0.98;;;;;;;;;;10228820;28;20500;-61
2021/10/16 02:25:03;;;;;;;1.73;0.70;;;;;;;;;;10243769;28;20408;-61
2021/10/16 02:30:02;;;;;;;1.10;0.73;;;;;;;;;;10242793;28;20297;-61
2021/10/16 02:35:02;;;;;;;5.15;1.25;;;;;;;;;;10226370;28;20045;-60
2021/10/16 02:40:00;;;;;;;3.88;0.77;;;;;;;;;;10226711;28;20037;-61
2021/10/16 02:44:58;;;;;;;5.00;1.00;;;;;;;;;;10235018;28;20038;-60
2021/10/16 02:49:55;;;;;;;2.07;0.67;;;;;;;;;;10234125;28;20042;-59
2021/10/16 02:54:53;;;;;;;0.83;0.83;;;;;;;;;;10227226;28;20101;-61
2021/10/16 02:59:57;;;;;;;4.20;0.77;;;;;;;;;;10225620;28;20477;-60
2021/10/16 03:04:54;;;;;;;1.33;0.30;;;;;;;;;;10242494;28;20065;-61
2021/10/16 03:09:52;;;;;;;5.50;0.60;;;;;;;;;;10225313;28;20630;-61
2021/10/16 03:14:50;;;;;;;6.43;1.13;;;;;;;;;;10237758;28;20443;-61
2021/10/16 03:19:48;;;;;;;2.45;0.50;;;;;;;;;;10227227;28;20054;-60
2021/10/16 03:24:47;;;;;;;1.70;0.45;;;;;;;;;;10242932;28;20461;-60
2021/10/16 03:29:45;;;;;;;6.57;1.50;;;;;;;;;;10226340;28;20104;-61
2021/10/16 03:34:42;;;;;;;2.73;0.43;;;;;;;;;;10243263;28;20401;-60
2021/10/16 03:39:40;;;;;;;6.70;0.70;;;;;;;;;;10223234;28;20031;-60
2021/10/16 03:44:38;;;;;;;0.73;0.50;;;;;;;;;;10224577;28;20178;-59
2021/10/16 03:49:35;;;;;;;2.23;0.23;;;;;;;;;;10223044;28;20450;-61
2021/10/16 03:54:33;;;;;;;1.80;0.60;;;;;;;;;;10223172;28;20085;-61
2021/10/16 03:59:30;;;;;;;2.43;0.73;;;;;;;;;;10222642;28;20875;-61
2021/10/16 04:04:28;;;;;;;6.57;0.83;;;;;;;;;;10238558;28;20038;-61
2021/10/16 04:09:26;;;;;;;0.80;0.57;;;;;;;;;;10224215;28;20034;-61
2021/10/16 04:14:23;;;;;;;6.20;0.90;;;;;;;;;;10222448;28;20042;-60
2021/10/16 04:19:21;;;;;;;10.90;0.83;;;;;;;;;;10237950;28;20038;-60
2021/10/16 04:24:19;;;;;;;2.83;0.97;;;;;;;;;;10222110;28;20034;-60
2021/10/16 04:29:16;;;;;;;1.92;0.95;;;;;;;;;;10221444;28;20504;-62
2021/10/16 04:34:31;;;;;;;3.75;0.60;;;;;;;;;;10238057;28;20404;-61
2021/10/16 04:39:29;;;;;;;3.47;0.95;;;;;;;;;;10221032;28;20034;-62
2021/10/16 04:44:27;;;;;;;1.13;0.70;;;;;;;;;;10218269;28;20031;-61
2021/10/16 04:49:25;;;;;;;1.02;0.85;;;;;;;;;;10220635;28;20113;-61
2021/10/16 04:54:23;;;;;;;0.60;0.60;;;;;;;;;;10223323;28;20117;-61
2021/10/16 04:59:20;;;;;;;1.00;0.67;;;;;;;;;;10245427;28;20038;-60
2021/10/16 05:04:18;;;;;;;3.22;0.70;;;;;;;;;;10221125;28;20407;-62
2021/10/16 05:09:17;;;;;;;1.67;0.38;;;;;;;;;;10237344;28;20034;-61
2021/10/16 05:14:14;;;;;;;2.23;0.50;;;;;;;;;;10221241;28;20034;-63
2021/10/16 05:19:13;;;;;;;3.55;1.63;;;;;;;;;;10236621;28;20039;-61
2021/10/16 05:24:11;;;;;;;3.47;0.70;;;;;;;;;;10220744;28;20042;-62
2021/10/16 05:29:10;;;;;;;4.15;0.98;;;;;;;;;;10219216;28;20030;-62
2021/10/16 05:34:07;;;;;;;5.63;0.77;;;;;;;;;;10217865;28;20031;-62
2021/10/16 05:39:05;;;;;;;7.07;1.13;;;;;;;;;;10220824;28;20519;-62
2021/10/16 05:44:02;;;;;;;6.50;0.83;;;;;;;;;;10220297;28;20388;-61
2021/10/16 05:49:00;;;;;;;3.90;1.57;;;;;;;;;;10236278;28;20069;-61
2021/10/16 05:53:58;;;;;;;1.73;0.33;;;;;;;;;;10220290;28;20034;-62
2021/10/16 05:58:58;;;;;;;3.33;0.80;;;;;;;;;;10218891;28;20096;-61
2021/10/16 06:03:56;;;;;;;2.17;1.02;;;;;;;;;;10217750;28;20126;-63
2021/10/16 06:08:53;;;;;;;1.43;0.70;;;;;;;;;;10172183;28;20034;-60
2021/10/16 06:13:51;;;;;;;2.87;1.17;;;;;;;;;;10208265;28;20071;-62
2021/10/16 06:18:48;;;;;;;4.50;1.23;;;;;;;;;;10194824;28;20169;-63
2021/10/16 06:23:46;;;;;;;3.20;0.83;;;;;;;;;;10203476;28;20034;-63
2021/10/16 06:28:48;;;;;;;4.65;1.23;;;;;;;;;;10212689;28;20043;-63
2021/10/16 06:33:46;;;;;;;0.93;0.60;;;;;;;;;;10216259;28;20092;-63
2021/10/16 06:38:43;;;;;;;2.80;0.90;;;;;;;;;;10206482;28;20512;-63
2021/10/16 06:43:41;;;;;;;2.07;0.70;;;;;;;;;;10206675;28;20324;-62
2021/10/16 06:49:11;;;;;;;1.20;0.82;;;;;;;;;;10184504;28;20065;-63
2021/10/16 06:54:10;;;;;;;1.20;0.60;;;;;;;;;;10201354;28;20030;-62
2021/10/16 06:59:07;;;;;;;5.45;0.90;;;;;;;;;;10207534;28;20042;-62
2021/10/16 07:04:05;;;;;;;0.85;0.82;;;;;;;;;;10196478;28;20092;-62
2021/10/16 07:09:03;;;;;;;3.10;0.60;;;;;;;;;;10191796;28;20078;-63
2021/10/16 07:14:02;;;;;;;0.50;0.50;;;;;;;;;;10165709;28;20030;-62
2021/10/16 07:19:00;;;;;;;4.97;0.65;;;;;;;;;;10205723;28;20038;-63
2021/10/16 07:23:57;;;;;;;1.43;0.60;;;;;;;;;;10242093;28;20042;-63
2021/10/16 07:28:54;;;;;;;3.17;1.17;;;;;;;;;;10252393;28;20193;-62
2021/10/16 07:33:53;;;;;;;1.67;0.90;;;;;;;;;;10242168;28;20044;-62
2021/10/16 07:38:50;;;;;;;;;;;;;;;;;;10244519;28;20071;-61
2021/10/16 07:43:48;;;;;;;8.95;1.75;;;;;;;;;;10248574;28;20307;-60
2021/10/16 07:48:46;;;;;;;2.63;1.20;;;;;;;;;;10241265;28;20049;-61
2021/10/16 07:53:43;;;;;;;3.85;1.30;;;;;;;;;;10240721;28;20040;-60
2021/10/16 07:58:41;;;;;;;1.90;1.20;;;;;;;;;;10237375;28;20034;-59
2021/10/16 08:03:38;;;;;;;4.28;1.27;;;;;;;;;;10233797;28;20041;-60
2021/10/16 08:08:36;;;;;;;5.20;1.20;;;;;;;;;;10240454;28;20042;-62
2021/10/16 08:13:33;;;;;;;4.87;1.33;;;;;;;;;;10241888;28;20034;-61
2021/10/16 08:18:31;;;;;;;1.80;0.80;;;;;;;;;;10235420;28;20092;-60
2021/10/16 08:23:28;;;;;;;10.20;1.20;;;;;;;;;;10229708;28;20660;-61
2021/10/16 08:28:29;;;;;;;2.80;1.00;;;;;;;;;;10237955;28;20087;-59
2021/10/16 08:33:27;;;;;;;9.23;1.40;;;;;;;;;;10237629;28;20033;-60
2021/10/16 08:38:24;;;;;;;5.20;1.20;;;;;;;;;;10233829;28;20041;-60
2021/10/16 08:43:22;;;;;;;3.73;0.70;;;;;;;;;;10241020;28;20511;-61
2021/10/16 08:48:19;;;;;;;0.50;0.43;;;;;;;;;;10240282;28;20507;-59
2021/10/16 08:53:17;;;;;;;1.50;0.70;;;;;;;;;;10234998;28;20037;-60
2021/10/16 08:58:14;;;;;;;4.40;1.03;;;;;;;;;;10241929;28;20415;-61
2021/10/16 09:03:20;;;;;;;2.70;0.83;;;;;;;;;;10257880;28;20046;-61
2021/10/16 09:08:37;;;;;;;1.60;0.60;;;;;;;;;;10242788;28;20392;-60
2021/10/16 09:13:42;;;;;;;2.30;0.50;;;;;;;;;;10226737;28;20038;-59
2021/10/16 09:18:48;;;;;;;2.35;0.75;;;;;;;;;;10218574;28;20030;-59
2021/10/16 09:23:46;;;;;;;2.33;0.70;;;;;;;;;;10221239;28;20039;-60
2021/10/16 09:28:43;;;;;;;6.10;0.77;;;;;;;;;;10245530;28;20045;-59
2021/10/16 09:33:45;;;;;;;1.43;0.73;;;;;;;;;;10244070;28;20038;-58
2021/10/16 09:38:42;;;;;;;1.60;1.02;;;;;;;;;;10247176;28;20092;-61
2021/10/16 09:43:41;;;;;;;1.60;0.53;;;;;;;;;;10242763;28;20034;-61
2021/10/16 09:48:39;;;;;;;2.78;0.93;;;;;;;;;;10242187;28;20046;-60
2021/10/16 09:53:36;;;;;;;0.73;0.57;;;;;;;;;;10248757;28;20034;-60
2021/10/16 09:58:36;;;;;;;2.93;1.00;;;;;;;;;;10235656;28;20183;-60
2021/10/16 10:03:35;;;;;;;5.47;1.20;;;;;;;;;;10234845;28;20046;-60
2021/10/16 10:08:33;;;;;;;2.50;0.95;;;;;;;;;;10250111;28;20499;-61
2021/10/16 10:13:34;;;;;;;2.75;1.33;;;;;;;;;;10248877;28;20411;-61
2021/10/16 10:23:57;;;;;;;10.70;2.60;;;;;;;;;;10241416;28;20060;-61
2021/10/16 10:28:56;;;;;;;4.78;1.90;;;;;;;;;;10248067;28;20045;-61
2021/10/16 10:34:03;;;;;;;4.72;1.85;;;;;;;;;;10248096;28;20104;-60
2021/10/16 10:39:01;;;;;;;3.42;1.80;;;;;;;;;;10245375;28;20038;-59
2021/10/16 10:44:00;;;;;;;5.10;1.33;;;;;;;;;;10245597;28;20212;-60
2021/10/16 10:49:09;;;;;;;3.08;1.73;;;;;;;;;;10249265;28;20033;-60
2021/10/16 10:54:16;;;;;;;3.00;1.70;;;;;;;;;;10242894;28;20034;-60
2021/10/16 10:59:16;;;;;;;2.60;1.27;;;;;;;;;;10247958;28;20291;-61
2021/10/16 11:04:32;;;;;;;3.78;1.25;;;;;;;;;;10253007;28;20077;-60
2021/10/16 11:09:30;;;;;;;1.55;0.95;;;;;;;;;;10244812;28;20263;-60
2021/10/16 11:14:31;;;;;;;3.00;0.80;;;;;;;;;;10236506;28;20534;-59
2021/10/16 11:19:30;;;;;;;1.25;0.70;;;;;;;;;;10232915;28;20521;-59
2021/10/16 11:24:27;;;;;;;0.60;0.60;;;;;;;;;;10197910;28;20467;-60
2021/10/16 11:29:32;;;;;;;2.20;0.70;;;;;;;;;;10227052;28;20037;-62
2021/10/16 11:34:29;;;;;;;0.88;0.60;;;;;;;;;;10262338;28;20038;-60
2021/10/16 11:39:29;;;;;;;0.77;0.60;;;;;;;;;;10227396;28;20041;-59
2021/10/16 11:44:27;;;;;;;3.05;1.08;;;;;;;;;;10239849;28;20529;-59
2021/10/16 11:49:26;;;;;;;0.93;0.70;;;;;;;;;;10232290;28;20148;-60
2021/10/16 11:54:24;;;;;;;3.17;0.60;;;;;;;;;;10240244;28;20157;-60
2021/10/16 11:59:21;;;;;;;2.07;0.90;;;;;;;;;;10253915;28;20148;-62
2021/10/16 12:04:19;;;;;;;3.27;0.93;;;;;;;;;;10238823;28;20528;-62
2021/10/16 12:09:17;;;;;;;0.37;0.37;;;;;;;;;;10243853;28;20075;-62
2021/10/16 12:14:21;;;;;;;2.25;0.50;;;;;;;;;;10224602;28;20582;-58
2021/10/16 12:19:19;;;;;;;0.98;0.47;;;;;;;;;;10234305;28;20143;-63
2021/10/16 12:24:16;;;;;;;;;;;;;;;;;;10238950;28;20030;-61
2021/10/16 12:29:31;;;;;;;2.23;1.10;;;;;;;;;;10221025;28;19920;-61
2021/10/16 12:34:30;;;;;;;30.63;8.35;;;;;;;;;;10220916;28;20300;-59
2021/10/16 12:39:38;;;;;;;10.90;4.40;;;;;;;;;;10222023;28;20034;-61
2021/10/16 12:44:39;;;;;;;5.28;2.42;;;;;;;;;;10225572;28;20415;-62
2021/10/16 12:49:37;;;;;;;7.55;2.80;;;;;;;;;;10239760;28;20072;-60
2021/10/16 12:54:36;;;;;;;5.77;3.00;;;;;;;;;;10231402;28;20523;-61
2021/10/16 12:59:33;;;;;;;4.55;2.38;;;;;;;;;;10242176;28;20042;-62
2021/10/16 13:04:39;;;;;;;1.85;1.52;;;;;;;;;;10246204;28;20042;-61
2021/10/16 13:09:36;;;;;;;8.98;2.90;;;;;;;;;;10235489;28;20612;-61
2021/10/16 13:14:34;;;;;;;10.40;3.13;;;;;;;;;;10226239;28;20398;-60
2021/10/16 13:19:31;;;;;;;6.88;2.65;;;;;;;;;;10241155;28;20042;-60
2021/10/16 13:24:29;;;;;;;2.47;1.43;;;;;;;;;;10240773;28;20048;-60
2021/10/16 13:29:26;;;;;;;3.97;1.63;;;;;;;;;;10241505;28;20037;-61
2021/10/16 13:34:24;;;;;;;9.17;2.03;;;;;;;;;;10241131;28;20539;-61
2021/10/16 13:39:21;;;;;;;2.07;0.67;;;;;;;;;;10244021;28;20038;-61
2021/10/16 13:44:19;;;;;;;2.13;1.50;;;;;;;;;;10234113;28;20492;-61
2021/10/16 13:49:16;;;;;;;2.30;0.90;;;;;;;;;;10240013;28;20080;-60
2021/10/16 13:54:13;;;;;;;5.27;0.93;;;;;;;;;;10241858;28;20122;-60
2021/10/16 13:59:11;;;;;;;3.40;1.23;;;;;;;;;;10233682;28;20051;-61
2021/10/16 14:04:08;;;;;;;2.73;0.83;;;;;;;;;;10241913;28;20124;-60
2021/10/16 14:09:06;;;;;;;3.73;1.53;;;;;;;;;;10237879;28;20045;-61
2021/10/16 14:14:03;;;;;;;7.00;1.63;;;;;;;;;;10238501;28;20041;-60
2021/10/16 14:19:00;;;;;;;2.20;1.00;;;;;;;;;;10271707;28;20065;-60
2021/10/16 14:23:58;;;;;;;2.23;0.87;;;;;;;;;;10235231;28;20041;-59
2021/10/16 14:28:55;;;;;;;2.83;0.77;;;;;;;;;;10236491;28;20049;-61
2021/10/16 14:33:53;;;;;;;4.57;0.90;;;;;;;;;;10232547;28;20470;-60
2021/10/16 14:38:50;;;;;;;1.73;0.93;;;;;;;;;;10228181;28;20415;-59
2021/10/16 14:43:48;;;;;;;0.97;0.90;;;;;;;;;;10233886;28;20500;-61
2021/10/16 14:48:45;;;;;;;3.20;0.77;;;;;;;;;;10223307;28;20112;-61
2021/10/16 14:53:43;;;;;;;1.67;0.70;;;;;;;;;;10200159;28;20049;-61
2021/10/16 14:58:41;;;;;;;1.10;0.80;;;;;;;;;;10226591;28;20068;-61
2021/10/16 15:03:38;;;;;;;2.27;0.90;;;;;;;;;;10238983;28;20834;-63
2021/10/16 15:08:35;;;;;;;1.70;1.23;;;;;;;;;;10239973;28;20507;-59
2021/10/16 15:13:33;;;;;;;0.73;0.73;;;;;;;;;;10229392;28;20046;-61
2021/10/16 15:18:30;;;;;;;3.00;0.97;;;;;;;;;;10245086;28;20042;-62
2021/10/16 15:23:28;;;;;;;6.40;0.63;;;;;;;;;;10244209;28;20528;-61
2021/10/16 15:28:25;;;;;;;2.70;0.90;;;;;;;;;;10228897;28;20050;-60
2021/10/16 15:33:23;;;;;;;0.53;0.50;;;;;;;;;;10255589;28;20041;-60
2021/10/16 15:38:20;;;;;;;1.77;0.60;;;;;;;;;;10242007;28;20053;-60
2021/10/16 15:43:17;;;;;;;1.23;0.70;;;;;;;;;;10226150;28;20120;-62
2021/10/16 15:48:15;;;;;;;2.47;1.00;;;;;;;;;;10229105;28;20042;-61
2021/10/16 15:53:12;;;;;;;0.57;0.37;;;;;;;;;;10232681;28;20045;-62
2021/10/16 15:58:10;;;;;;;1.33;0.73;;;;;;;;;;10234304;28;20041;-61
2021/10/16 16:03:07;;;;;;;1.97;1.30;;;;;;;;;;10234378;28;20451;-61
2021/10/16 16:08:04;;;;;;;3.93;1.73;;;;;;;;;;10246348;28;20038;-60
2021/10/16 16:13:02;;;;;;;3.07;0.97;;;;;;;;;;10225869;28;20045;-62
2021/10/16 16:17:59;;;;;;;5.77;0.90;;;;;;;;;;10244772;28;20459;-59
2021/10/16 16:22:57;;;;;;;2.57;0.77;;;;;;;;;;10215113;28;20049;-59
2021/10/16 16:27:54;;;;;;;3.90;1.07;;;;;;;;;;10200694;28;20127;-59
2021/10/16 16:32:52;;;;;;;4.97;1.20;;;;;;;;;;10187827;28;20039;-59
2021/10/16 16:37:49;;;;;;;2.37;0.87;;;;;;;;;;10217395;28;20050;-61
2021/10/16 16:42:47;;;;;;;2.30;0.83;;;;;;;;;;10206776;28;23387;-60
2021/10/16 16:47:45;;;;;;;3.10;0.77;;;;;;;;;;10213691;28;20376;-61
2021/10/16 16:52:42;;;;;;;4.40;1.00;;;;;;;;;;10210742;28;20026;-60
2021/10/16 16:57:40;;;;;;;2.10;0.80;;;;;;;;;;10221289;28;20290;-61
2021/10/16 17:02:38;;;;;;;1.30;1.20;;;;;;;;;;10230839;28;20041;-62
2021/10/16 17:07:36;;;;;;;3.78;1.33;;;;;;;;;;10241566;28;20022;-61
2021/10/16 17:12:33;;;;;;;3.55;1.42;;;;;;;;;;10235581;28;20034;-60
2021/10/16 17:17:31;;;;;;;2.27;1.43;;;;;;;;;;10206376;28;20038;-60
2021/10/16 17:22:28;;;;;;;5.60;1.83;;;;;;;;;;10236450;28;20038;-61
2021/10/16 17:27:25;;;;;;;6.63;1.43;;;;;;;;;;10242022;28;20506;-61
2021/10/16 17:32:23;;;;;;;2.03;1.60;;;;;;;;;;10232861;28;20033;-61
2021/10/16 17:37:22;;;;;;;3.93;1.73;;;;;;;;;;10226780;28;20034;-61
2021/10/16 17:42:21;;;;;;;5.30;1.88;;;;;;;;;;10237210;28;20412;-59
2021/10/16 17:47:18;;;;;;;3.50;1.70;;;;;;;;;;10233686;28;20045;-60
2021/10/16 17:52:15;;;;;;;6.80;2.60;;;;;;;;;;10230570;28;20038;-58
2021/10/16 17:57:13;;;;;;;2.70;1.60;;;;;;;;;;10235457;28;20129;-59
2021/10/16 18:02:11;;;;;;;5.37;2.40;;;;;;;;;;10223252;28;20045;-59
2021/10/16 18:07:08;;;;;;;6.80;1.95;;;;;;;;;;10236957;28;20128;-60
2021/10/16 18:12:06;;;;;;;4.47;1.47;;;;;;;;;;10236409;28;20614;-60
2021/10/16 18:17:03;;;;;;;7.37;1.67;;;;;;;;;;10222340;28;20038;-60
2021/10/16 18:22:01;;;;;;;8.13;1.30;;;;;;;;;;10227599;28;20408;-61
2021/10/16 18:26:58;;;;;;;5.73;1.50;;;;;;;;;;10232471;28;20054;-60
2021/10/16 18:31:56;;;;;;;3.93;1.50;;;;;;;;;;10234992;28;20163;-60
2021/10/16 18:36:53;;;;;;;10.83;1.90;;;;;;;;;;10233291;28;20067;-60
2021/10/16 18:41:50;;;;;;;2.63;1.00;;;;;;;;;;10228210;28;20427;-61
2021/10/16 18:46:48;;;;;;;8.30;2.03;;;;;;;;;;10234971;28;20034;-59
2021/10/16 18:51:46;;;;;;;2.67;1.17;;;;;;;;;;10227095;28;20033;-59
2021/10/16 18:56:45;;;;;;;;;;;;;;;;;;10233573;28;20058;-60
2021/10/16 19:01:43;;;;;;;5.90;1.60;;;;;;;;;;10219879;28;19956;-60
2021/10/16 19:06:41;;;;;;;4.60;1.77;;;;;;;;;;10228916;28;20048;-59
2021/10/16 19:11:41;;;;;;;5.70;1.80;;;;;;;;;;10224594;28;20046;-60
2021/10/16 19:16:39;;;;;;;2.17;1.73;;;;;;;;;;10212685;28;20034;-59
2021/10/16 19:21:36;;;;;;;1.40;1.30;;;;;;;;;;10221151;28;20035;-60
2021/10/16 19:26:33;;;;;;;8.80;2.33;;;;;;;;;;10223262;28;20049;-60
2021/10/16 19:31:31;;;;;;;10.83;1.97;;;;;;;;;;10238650;28;20034;-60
2021/10/16 19:36:28;;;;;;;6.60;1.80;;;;;;;;;;10231586;28;20099;-60
2021/10/16 19:41:26;;;;;;;15.17;2.43;;;;;;;;;;10241093;28;20463;-60
2021/10/16 19:46:23;;;;;;;17.93;2.37;;;;;;;;;;10228950;28;20038;-59
2021/10/16 19:51:21;;;;;;;3.60;1.50;;;;;;;;;;10225584;28;20046;-61
2021/10/16 19:56:18;;;;;;;6.80;1.50;;;;;;;;;;10238667;28;20080;-61
2021/10/16 20:01:15;;;;;;;8.47;1.87;;;;;;;;;;10233505;28;20049;-59
2021/10/16 20:06:13;;;;;;;4.37;1.40;;;;;;;;;;10217991;28;20745;-61
2021/10/16 20:11:14;;;;;;;5.03;2.23;;;;;;;;;;10232306;28;20092;-61
2021/10/16 20:16:11;;;;;;;7.57;1.73;;;;;;;;;;10237301;28;20037;-61
2021/10/16 20:21:10;;;;;;;3.93;1.33;;;;;;;;;;10231070;28;20038;-60
2021/10/16 20:26:08;;;;;;;8.52;2.10;;;;;;;;;;10232928;28;20442;-61
2021/10/16 20:31:05;;;;;;;4.33;1.63;;;;;;;;;;10235383;28;20096;-60
2021/10/16 20:36:03;;;;;;;4.80;1.23;;;;;;;;;;10225949;28;20388;-62
2021/10/16 20:41:02;;;;;;;3.27;1.87;;;;;;;;;;10234592;28;20046;-61
2021/10/16 20:45:59;;;;;;;6.10;2.10;;;;;;;;;;10238434;28;20038;-60
2021/10/16 20:50:56;;;;;;;2.83;1.60;;;;;;;;;;10238592;28;20034;-61
2021/10/16 20:55:55;;;;;;;;;;;;;;;;;;10226120;28;20050;-58
2021/10/16 21:00:52;;;;;;;5.57;2.03;;;;;;;;;;10240966;28;19932;-61
2021/10/16 21:05:50;;;;;;;2.03;1.33;;;;;;;;;;10247053;28;20297;-60
2021/10/16 21:10:48;;;;;;;2.33;1.33;;;;;;;;;;10244089;28;20030;-60
2021/10/16 21:15:45;;;;;;;4.17;1.47;;;;;;;;;;10248220;28;20029;-60
2021/10/16 21:20:42;;;;;;;7.50;1.37;;;;;;;;;;10235996;28;20033;-61
2021/10/16 21:25:40;;;;;;;9.23;2.00;;;;;;;;;;10235821;28;21493;-60
2021/10/16 21:30:38;;;;;;;4.87;1.80;;;;;;;;;;10237511;28;20026;-61
2021/10/16 21:35:36;;;;;;;3.13;1.17;;;;;;;;;;10225500;28;20126;-61
2021/10/16 21:40:35;;;;;;;3.83;1.08;;;;;;;;;;10238210;28;21329;-61
2021/10/16 21:45:33;;;;;;;9.60;2.47;;;;;;;;;;10242584;28;20034;-61
2021/10/16 21:50:30;;;;;;;4.87;1.77;;;;;;;;;;10248835;28;20041;-60
2021/10/16 21:55:27;;;;;;;1.33;0.97;;;;;;;;;;10239524;28;20088;-61
2021/10/16 22:00:28;;;;;;;2.70;1.27;;;;;;;;;;10249789;28;20124;-61
2021/10/16 22:05:25;;;;;;;5.03;1.60;;;;;;;;;;10240656;28;20381;-61
2021/10/16 22:10:23;;;;;;;5.73;1.57;;;;;;;;;;10236900;28;20030;-60
2021/10/16 22:15:20;;;;;;;1.10;1.00;;;;;;;;;;10235176;28;20393;-61
2021/10/16 22:20:18;;;;;;;9.60;1.43;;;;;;;;;;10252839;28;20415;-60
2021/10/16 22:25:15;;;;;;;5.57;1.30;;;;;;;;;;10246836;28;20073;-59
2021/10/16 22:30:13;;;;;;;3.63;1.40;;;;;;;;;;10249364;28;20109;-59
2021/10/16 22:35:11;;;;;;;8.70;1.60;;;;;;;;;;10240740;28;20034;-60
2021/10/16 22:40:09;;;;;;;7.53;1.48;;;;;;;;;;10239357;28;20428;-60
2021/10/16 22:45:07;;;;;;;10.35;1.48;;;;;;;;;;10243622;28;20038;-60
2021/10/16 22:50:09;;;;;;;5.78;1.25;;;;;;;;;;10239650;28;20045;-60
2021/10/16 22:55:08;;;;;;;7.47;2.13;;;;;;;;;;10230072;28;20038;-60
2021/10/16 23:00:07;;;;;;;4.18;1.13;;;;;;;;;;10241624;28;20037;-60
2021/10/16 23:05:04;;;;;;;;;;;;;;;;;;10248920;28;20038;-59
2021/10/16 23:10:03;;;;;;;6.68;1.70;;;;;;;;;;10255174;28;19913;-59
2021/10/16 23:15:03;;;;;;;5.25;1.77;;;;;;;;;;10244253;28;20077;-58
2021/10/16 23:20:01;;;;;;;4.82;2.25;;;;;;;;;;10239524;28;20039;-60
2021/10/16 23:24:58;;;;;;;5.90;1.50;;;;;;;;;;10250547;28;20045;-59
2021/10/16 23:29:56;;;;;;;3.07;1.13;;;;;;;;;;10245765;28;20034;-60
2021/10/16 23:34:53;;;;;;;4.07;1.63;;;;;;;;;;10229928;28;20137;-60
2021/10/16 23:39:50;;;;;;;4.13;1.53;;;;;;;;;;10229834;28;20030;-60
2021/10/16 23:44:48;;;;;;;7.00;1.33;;;;;;;;;;10244487;28;20033;-60
2021/10/16 23:49:45;;;;;;;6.97;1.50;;;;;;;;;;10239261;28;20034;-60
2021/10/16 23:54:42;;;;;;;5.30;2.67;;;;;;;;;;10248600;28;20042;-60
2021/10/16 23:59:40;;;;;;;12.60;3.73;;;;;;;;;;10254649;28;20543;-59
